sensor_id;sensor_type;location;lat;lon;timestamp;pressure;altitude;pressure_sealevel;temperature;humidity
79028;BME280;68427;48.476;19.102;2023-06-04T00:01:53;97841.94;;;8.14;75.35
79028;BME280;68427;48.476;19.102;2023-06-04T00:04:18;97841.59;;;8.17;75.23
79028;BME280;68427;48.476;19.102;2023-06-04T00:06:46;97836.88;;;8.12;74.95
79028;BME280;68427;48.476;19.102;2023-06-04T00:09:11;97830.06;;;8.11;75.05
79028;BME280;68427;48.476;19.102;2023-06-04T00:11:37;97833.50;;;8.04;74.95
79028;BME280;68427;48.476;19.102;2023-06-04T00:14:03;97828.16;;;7.97;75.41
79028;BME280;68427;48.476;19.102;2023-06-04T00:16:28;97825.75;;;7.87;75.29
79028;BME280;68427;48.476;19.102;2023-06-04T00:18:54;97826.78;;;7.78;75.38
79028;BME280;68427;48.476;19.102;2023-06-04T00:21:20;97831.00;;;7.79;75.91
79028;BME280;68427;48.476;19.102;2023-06-04T00:23:47;97828.59;;;7.77;76.18
79028;BME280;68427;48.476;19.102;2023-06-04T00:26:12;97830.34;;;7.77;75.87
79028;BME280;68427;48.476;19.102;2023-06-04T00:28:38;97827.63;;;7.70;75.54
79028;BME280;68427;48.476;19.102;2023-06-04T00:31:05;97827.97;;;7.59;75.94
79028;BME280;68427;48.476;19.102;2023-06-04T00:33:31;97817.22;;;7.54;76.26
79028;BME280;68427;48.476;19.102;2023-06-04T00:35:57;97821.81;;;7.44;76.57
79028;BME280;68427;48.476;19.102;2023-06-04T00:38:22;97814.34;;;7.41;76.51
79028;BME280;68427;48.476;19.102;2023-06-04T00:40:49;97823.78;;;7.42;76.15
79028;BME280;68427;48.476;19.102;2023-06-04T00:43:15;97812.22;;;7.36;76.55
79028;BME280;68427;48.476;19.102;2023-06-04T00:45:41;97808.50;;;7.30;76.94
79028;BME280;68427;48.476;19.102;2023-06-04T00:48:07;97809.31;;;7.31;76.58
79028;BME280;68427;48.476;19.102;2023-06-04T00:50:33;97808.84;;;7.27;76.51
79028;BME280;68427;48.476;19.102;2023-06-04T00:53:00;97808.03;;;7.19;76.68
79028;BME280;68427;48.476;19.102;2023-06-04T00:55:26;97800.88;;;7.12;77.19
79028;BME280;68427;48.476;19.102;2023-06-04T00:57:53;97812.59;;;7.17;77.32
79028;BME280;68427;48.476;19.102;2023-06-04T01:00:19;97810.63;;;7.19;76.97
79028;BME280;68427;48.476;19.102;2023-06-04T01:02:47;97817.31;;;7.21;76.74
79028;BME280;68427;48.476;19.102;2023-06-04T01:05:20;97810.78;;;7.17;77.00
79028;BME280;68427;48.476;19.102;2023-06-04T01:07:50;97806.91;;;7.13;77.34
79028;BME280;68427;48.476;19.102;2023-06-04T01:10:16;97812.59;;;7.08;77.57
79028;BME280;68427;48.476;19.102;2023-06-04T01:12:42;97814.41;;;7.00;77.31
79028;BME280;68427;48.476;19.102;2023-06-04T01:15:10;97808.19;;;7.09;77.38
79028;BME280;68427;48.476;19.102;2023-06-04T01:17:40;97811.78;;;7.16;77.00
79028;BME280;68427;48.476;19.102;2023-06-04T01:20:17;97812.91;;;7.22;76.16
79028;BME280;68427;48.476;19.102;2023-06-04T01:22:51;97818.81;;;7.07;77.00
79028;BME280;68427;48.476;19.102;2023-06-04T01:25:32;97816.19;;;6.99;78.06
79028;BME280;68427;48.476;19.102;2023-06-04T01:27:58;97813.44;;;6.92;77.88
79028;BME280;68427;48.476;19.102;2023-06-04T01:30:28;97817.19;;;6.90;78.31
79028;BME280;68427;48.476;19.102;2023-06-04T01:32:54;97816.84;;;6.93;79.02
79028;BME280;68427;48.476;19.102;2023-06-04T01:35:20;97811.47;;;6.95;78.41
79028;BME280;68427;48.476;19.102;2023-06-04T01:37:46;97803.34;;;6.98;77.83
79028;BME280;68427;48.476;19.102;2023-06-04T01:40:13;97810.66;;;7.02;77.81
79028;BME280;68427;48.476;19.102;2023-06-04T01:42:38;97813.91;;;7.04;79.02
79028;BME280;68427;48.476;19.102;2023-06-04T01:45:05;97809.34;;;7.06;78.52
79028;BME280;68427;48.476;19.102;2023-06-04T01:47:32;97818.47;;;7.10;77.78
79028;BME280;68427;48.476;19.102;2023-06-04T01:49:59;97812.13;;;7.13;78.35
79028;BME280;68427;48.476;19.102;2023-06-04T01:52:24;97817.47;;;7.20;77.99
79028;BME280;68427;48.476;19.102;2023-06-04T01:54:50;97828.22;;;7.17;78.82
79028;BME280;68427;48.476;19.102;2023-06-04T01:57:17;97821.72;;;7.12;78.44
79028;BME280;68427;48.476;19.102;2023-06-04T01:59:43;97816.84;;;7.18;78.07
79028;BME280;68427;48.476;19.102;2023-06-04T02:02:10;97810.78;;;7.25;78.34
79028;BME280;68427;48.476;19.102;2023-06-04T02:04:37;97810.47;;;7.28;78.16
79028;BME280;68427;48.476;19.102;2023-06-04T02:07:03;97812.75;;;7.23;78.87
79028;BME280;68427;48.476;19.102;2023-06-04T02:09:28;97808.50;;;7.30;78.63
79028;BME280;68427;48.476;19.102;2023-06-04T02:11:54;97814.06;;;7.27;78.43
79028;BME280;68427;48.476;19.102;2023-06-04T02:14:20;97815.50;;;7.30;78.90
79028;BME280;68427;48.476;19.102;2023-06-04T02:16:46;97810.94;;;7.32;78.79
79028;BME280;68427;48.476;19.102;2023-06-04T02:19:15;97815.00;;;7.26;79.06
79028;BME280;68427;48.476;19.102;2023-06-04T02:21:42;97806.72;;;7.23;79.67
79028;BME280;68427;48.476;19.102;2023-06-04T02:24:07;97817.13;;;7.14;80.19
79028;BME280;68427;48.476;19.102;2023-06-04T02:26:33;97818.44;;;7.19;80.30
79028;BME280;68427;48.476;19.102;2023-06-04T02:28:59;97824.81;;;7.16;80.81
79028;BME280;68427;48.476;19.102;2023-06-04T02:31:25;97814.53;;;7.23;80.29
79028;BME280;68427;48.476;19.102;2023-06-04T02:33:51;97817.63;;;7.26;79.82
79028;BME280;68427;48.476;19.102;2023-06-04T02:36:16;97819.88;;;7.29;80.35
79028;BME280;68427;48.476;19.102;2023-06-04T02:38:44;97815.50;;;7.30;80.05
79028;BME280;68427;48.476;19.102;2023-06-04T02:41:09;97810.13;;;7.31;80.25
79028;BME280;68427;48.476;19.102;2023-06-04T02:43:36;97815.50;;;7.38;79.69
79028;BME280;68427;48.476;19.102;2023-06-04T02:46:02;97818.91;;;7.39;79.01
79028;BME280;68427;48.476;19.102;2023-06-04T02:48:27;97812.69;;;7.40;79.33
79028;BME280;68427;48.476;19.102;2023-06-04T02:50:54;97818.25;;;7.36;79.43
79028;BME280;68427;48.476;19.102;2023-06-04T02:53:20;97820.88;;;7.28;79.25
79028;BME280;68427;48.476;19.102;2023-06-04T02:55:48;97822.50;;;7.21;79.58
79028;BME280;68427;48.476;19.102;2023-06-04T02:58:14;97827.41;;;7.16;79.72
79028;BME280;68427;48.476;19.102;2023-06-04T03:00:41;97817.13;;;7.14;80.14
79028;BME280;68427;48.476;19.102;2023-06-04T03:03:07;97828.41;;;7.15;79.99
79028;BME280;68427;48.476;19.102;2023-06-04T03:05:32;97832.94;;;7.13;79.65
79028;BME280;68427;48.476;19.102;2023-06-04T03:08:00;97829.53;;;7.12;79.84
79028;BME280;68427;48.476;19.102;2023-06-04T03:10:25;97824.94;;;7.14;79.83
79028;BME280;68427;48.476;19.102;2023-06-04T03:12:52;97830.00;;;7.16;79.79
79028;BME280;68427;48.476;19.102;2023-06-04T03:15:18;97830.81;;;7.17;80.40
79028;BME280;68427;48.476;19.102;2023-06-04T03:17:44;97837.66;;;7.18;80.50
79028;BME280;68427;48.476;19.102;2023-06-04T03:20:10;97833.28;;;7.18;80.25
79028;BME280;68427;48.476;19.102;2023-06-04T03:22:36;97844.66;;;7.25;80.34
79028;BME280;68427;48.476;19.102;2023-06-04T03:25:02;97845.81;;;7.23;80.28
79028;BME280;68427;48.476;19.102;2023-06-04T03:27:29;97835.06;;;7.26;79.76
79028;BME280;68427;48.476;19.102;2023-06-04T03:29:56;97840.09;;;7.27;79.74
79028;BME280;68427;48.476;19.102;2023-06-04T03:32:22;97841.69;;;7.36;79.24
79028;BME280;68427;48.476;19.102;2023-06-04T03:34:48;97844.63;;;7.42;79.06
79028;BME280;68427;48.476;19.102;2023-06-04T03:37:13;97841.88;;;7.35;78.79
79028;BME280;68427;48.476;19.102;2023-06-04T03:39:39;97842.69;;;7.35;79.01
79028;BME280;68427;48.476;19.102;2023-06-04T03:42:05;97839.91;;;7.45;78.50
79028;BME280;68427;48.476;19.102;2023-06-04T03:44:31;97844.94;;;7.55;78.63
79028;BME280;68427;48.476;19.102;2023-06-04T03:46:58;97843.78;;;7.57;78.86
79028;BME280;68427;48.476;19.102;2023-06-04T03:49:24;97847.38;;;7.56;78.24
79028;BME280;68427;48.476;19.102;2023-06-04T03:51:49;97855.06;;;7.50;79.01
79028;BME280;68427;48.476;19.102;2023-06-04T03:54:15;97854.91;;;7.43;79.26
79028;BME280;68427;48.476;19.102;2023-06-04T03:56:43;97859.44;;;7.41;79.69
79028;BME280;68427;48.476;19.102;2023-06-04T03:59:09;97861.25;;;7.41;80.13
79028;BME280;68427;48.476;19.102;2023-06-04T04:01:35;97860.56;;;7.47;80.17
79028;BME280;68427;48.476;19.102;2023-06-04T04:04:02;97863.19;;;7.55;80.64
79028;BME280;68427;48.476;19.102;2023-06-04T04:06:27;97867.03;;;7.67;80.03
79028;BME280;68427;48.476;19.102;2023-06-04T04:08:53;97868.97;;;7.82;79.87
79028;BME280;68427;48.476;19.102;2023-06-04T04:11:19;97855.03;;;7.97;78.61
79028;BME280;68427;48.476;19.102;2023-06-04T04:13:45;97862.13;;;8.20;77.96
79028;BME280;68427;48.476;19.102;2023-06-04T04:16:11;97862.03;;;8.44;77.19
79028;BME280;68427;48.476;19.102;2023-06-04T04:18:37;97856.81;;;8.68;78.04
79028;BME280;68427;48.476;19.102;2023-06-04T04:21:04;97857.81;;;8.90;78.02
79028;BME280;68427;48.476;19.102;2023-06-04T04:23:30;97855.53;;;9.09;75.38
79028;BME280;68427;48.476;19.102;2023-06-04T04:25:59;97863.69;;;9.29;74.67
79028;BME280;68427;48.476;19.102;2023-06-04T04:28:25;97859.31;;;9.45;73.89
79028;BME280;68427;48.476;19.102;2023-06-04T04:30:54;97863.38;;;9.62;73.56
79028;BME280;68427;48.476;19.102;2023-06-04T04:33:19;97862.59;;;9.77;72.19
79028;BME280;68427;48.476;19.102;2023-06-04T04:35:45;97862.06;;;9.81;71.39
79028;BME280;68427;48.476;19.102;2023-06-04T04:38:12;97863.66;;;9.97;71.78
79028;BME280;68427;48.476;19.102;2023-06-04T04:40:38;97863.22;;;10.08;72.33
79028;BME280;68427;48.476;19.102;2023-06-04T04:43:04;97862.31;;;10.16;72.17
79028;BME280;68427;48.476;19.102;2023-06-04T04:45:30;97856.69;;;10.19;71.02
79028;BME280;68427;48.476;19.102;2023-06-04T04:47:56;97873.38;;;10.33;71.52
79028;BME280;68427;48.476;19.102;2023-06-04T04:50:22;97867.94;;;10.49;70.13
79028;BME280;68427;48.476;19.102;2023-06-04T04:52:47;97863.63;;;10.63;69.93
79028;BME280;68427;48.476;19.102;2023-06-04T04:55:14;97860.00;;;10.79;69.93
79028;BME280;68427;48.476;19.102;2023-06-04T04:57:40;97864.63;;;10.98;70.32
79028;BME280;68427;48.476;19.102;2023-06-04T05:00:07;97857.72;;;11.19;69.30
79028;BME280;68427;48.476;19.102;2023-06-04T05:02:34;97854.88;;;11.42;69.68
79028;BME280;68427;48.476;19.102;2023-06-04T05:05:00;97853.41;;;11.67;68.25
79028;BME280;68427;48.476;19.102;2023-06-04T05:07:25;97855.66;;;12.05;67.07
79028;BME280;68427;48.476;19.102;2023-06-04T05:09:51;97860.38;;;12.23;67.20
79028;BME280;68427;48.476;19.102;2023-06-04T05:12:18;97854.56;;;12.41;66.83
79028;BME280;68427;48.476;19.102;2023-06-04T05:14:44;97860.97;;;12.87;65.46
79028;BME280;68427;48.476;19.102;2023-06-04T05:17:11;97855.94;;;13.12;63.33
79028;BME280;68427;48.476;19.102;2023-06-04T05:19:38;97864.25;;;13.49;61.84
79028;BME280;68427;48.476;19.102;2023-06-04T05:22:04;97863.41;;;13.68;61.08
79028;BME280;68427;48.476;19.102;2023-06-04T05:24:30;97853.25;;;13.78;62.29
79028;BME280;68427;48.476;19.102;2023-06-04T05:26:58;97855.84;;;13.92;62.25
79028;BME280;68427;48.476;19.102;2023-06-04T05:29:25;97856.06;;;14.42;60.73
79028;BME280;68427;48.476;19.102;2023-06-04T05:31:51;97853.59;;;14.60;59.69
79028;BME280;68427;48.476;19.102;2023-06-04T05:34:16;97862.50;;;14.59;56.37
79028;BME280;68427;48.476;19.102;2023-06-04T05:36:42;97862.50;;;14.59;55.44
79028;BME280;68427;48.476;19.102;2023-06-04T05:39:08;97869.78;;;14.96;54.10
79028;BME280;68427;48.476;19.102;2023-06-04T05:41:34;97869.41;;;15.42;53.59
79028;BME280;68427;48.476;19.102;2023-06-04T05:44:02;97867.53;;;15.74;52.36
79028;BME280;68427;48.476;19.102;2023-06-04T05:46:29;97873.34;;;15.83;52.55
79028;BME280;68427;48.476;19.102;2023-06-04T05:48:55;97872.75;;;15.81;51.04
79028;BME280;68427;48.476;19.102;2023-06-04T05:51:20;97866.75;;;15.67;51.57
79028;BME280;68427;48.476;19.102;2023-06-04T05:53:46;97853.25;;;15.57;51.29
79028;BME280;68427;48.476;19.102;2023-06-04T05:56:12;97854.56;;;15.48;51.80
79028;BME280;68427;48.476;19.102;2023-06-04T05:58:38;97873.66;;;15.50;51.20
79028;BME280;68427;48.476;19.102;2023-06-04T06:01:03;97874.69;;;15.42;54.17
79028;BME280;68427;48.476;19.102;2023-06-04T06:03:30;97869.53;;;15.79;53.80
79028;BME280;68427;48.476;19.102;2023-06-04T06:05:56;97868.19;;;17.04;51.09
79028;BME280;68427;48.476;19.102;2023-06-04T06:08:25;97853.38;;;17.97;47.89
79028;BME280;68427;48.476;19.102;2023-06-04T06:10:50;97856.09;;;18.54;44.37
79028;BME280;68427;48.476;19.102;2023-06-04T06:13:16;97857.03;;;19.23;41.85
79028;BME280;68427;48.476;19.102;2023-06-04T06:15:42;97858.81;;;19.34;40.97
79028;BME280;68427;48.476;19.102;2023-06-04T06:18:13;97864.41;;;19.88;41.02
79028;BME280;68427;48.476;19.102;2023-06-04T06:20:40;97862.75;;;20.26;39.08
79028;BME280;68427;48.476;19.102;2023-06-04T06:23:07;97860.91;;;20.76;39.21
79028;BME280;68427;48.476;19.102;2023-06-04T06:25:32;97858.16;;;20.92;38.46
79028;BME280;68427;48.476;19.102;2023-06-04T06:27:58;97859.50;;;20.46;38.55
79028;BME280;68427;48.476;19.102;2023-06-04T06:30:24;97862.06;;;20.58;38.50
79028;BME280;68427;48.476;19.102;2023-06-04T06:32:50;97860.25;;;20.90;38.86
79028;BME280;68427;48.476;19.102;2023-06-04T06:35:16;97849.53;;;21.12;38.00
79028;BME280;68427;48.476;19.102;2023-06-04T06:37:43;97854.13;;;21.49;36.71
79028;BME280;68427;48.476;19.102;2023-06-04T06:40:09;97853.88;;;22.09;36.89
79028;BME280;68427;48.476;19.102;2023-06-04T06:42:35;97861.31;;;22.70;34.74
79028;BME280;68427;48.476;19.102;2023-06-04T06:45:01;97867.00;;;23.04;34.18
79028;BME280;68427;48.476;19.102;2023-06-04T06:47:26;97864.34;;;23.55;32.22
79028;BME280;68427;48.476;19.102;2023-06-04T06:49:52;97858.38;;;23.94;32.39
79028;BME280;68427;48.476;19.102;2023-06-04T06:52:18;97865.41;;;24.40;30.66
79028;BME280;68427;48.476;19.102;2023-06-04T06:54:46;97857.88;;;24.96;30.49
79028;BME280;68427;48.476;19.102;2023-06-04T06:57:12;97858.81;;;25.16;30.12
79028;BME280;68427;48.476;19.102;2023-06-04T06:59:38;97858.56;;;25.12;28.91
79028;BME280;68427;48.476;19.102;2023-06-04T07:02:05;97859.78;;;25.30;28.67
79028;BME280;68427;48.476;19.102;2023-06-04T07:04:31;97856.13;;;25.21;28.64
79028;BME280;68427;48.476;19.102;2023-06-04T07:06:57;97858.00;;;25.50;28.60
79028;BME280;68427;48.476;19.102;2023-06-04T07:09:23;97852.88;;;26.06;27.89
79028;BME280;68427;48.476;19.102;2023-06-04T07:11:50;97847.44;;;26.12;27.39
79028;BME280;68427;48.476;19.102;2023-06-04T07:14:15;97858.00;;;26.03;27.84
79028;BME280;68427;48.476;19.102;2023-06-04T07:16:41;97856.94;;;26.47;27.22
79028;BME280;68427;48.476;19.102;2023-06-04T07:19:07;97872.47;;;27.26;27.23
79028;BME280;68427;48.476;19.102;2023-06-04T07:21:32;97868.94;;;28.46;26.09
79028;BME280;68427;48.476;19.102;2023-06-04T07:23:58;97869.47;;;28.71;25.96
79028;BME280;68427;48.476;19.102;2023-06-04T07:26:24;97870.25;;;28.85;24.54
79028;BME280;68427;48.476;19.102;2023-06-04T07:28:52;97875.09;;;28.97;23.67
79028;BME280;68427;48.476;19.102;2023-06-04T07:31:17;97872.97;;;29.61;23.97
79028;BME280;68427;48.476;19.102;2023-06-04T07:33:43;97866.91;;;29.47;23.06
79028;BME280;68427;48.476;19.102;2023-06-04T07:36:10;97864.28;;;30.53;22.18
79028;BME280;68427;48.476;19.102;2023-06-04T07:38:36;97862.59;;;29.46;23.20
79028;BME280;68427;48.476;19.102;2023-06-04T07:41:01;97858.84;;;30.44;22.63
79028;BME280;68427;48.476;19.102;2023-06-04T07:43:27;97852.84;;;31.08;20.60
79028;BME280;68427;48.476;19.102;2023-06-04T07:45:54;97840.31;;;31.68;21.03
79028;BME280;68427;48.476;19.102;2023-06-04T07:48:20;97839.13;;;32.16;20.66
79028;BME280;68427;48.476;19.102;2023-06-04T07:50:45;97839.41;;;31.38;19.79
79028;BME280;68427;48.476;19.102;2023-06-04T07:53:11;97841.81;;;31.48;20.62
79028;BME280;68427;48.476;19.102;2023-06-04T07:55:37;97836.94;;;31.15;21.40
79028;BME280;68427;48.476;19.102;2023-06-04T07:58:02;97839.13;;;31.31;19.61
79028;BME280;68427;48.476;19.102;2023-06-04T08:00:28;97834.06;;;30.51;19.61
79028;BME280;68427;48.476;19.102;2023-06-04T08:02:56;97840.25;;;31.77;20.07
79028;BME280;68427;48.476;19.102;2023-06-04T08:05:22;97839.81;;;32.13;16.67
79028;BME280;68427;48.476;19.102;2023-06-04T08:07:48;97840.72;;;32.17;16.95
79028;BME280;68427;48.476;19.102;2023-06-04T08:10:14;97845.72;;;32.06;14.95
79028;BME280;68427;48.476;19.102;2023-06-04T08:12:40;97847.94;;;33.06;16.83
79028;BME280;68427;48.476;19.102;2023-06-04T08:15:06;97847.66;;;32.78;17.72
79028;BME280;68427;48.476;19.102;2023-06-04T08:17:32;97843.66;;;31.65;16.73
79028;BME280;68427;48.476;19.102;2023-06-04T08:19:59;97846.00;;;31.11;18.03
79028;BME280;68427;48.476;19.102;2023-06-04T08:22:26;97845.06;;;30.98;17.88
79028;BME280;68427;48.476;19.102;2023-06-04T08:24:52;97850.78;;;31.78;15.65
79028;BME280;68427;48.476;19.102;2023-06-04T08:27:18;97844.53;;;31.31;16.27
79028;BME280;68427;48.476;19.102;2023-06-04T08:29:44;97857.38;;;31.60;14.91
79028;BME280;68427;48.476;19.102;2023-06-04T08:32:10;97840.25;;;31.85;16.30
79028;BME280;68427;48.476;19.102;2023-06-04T08:34:36;97851.53;;;33.43;14.87
79028;BME280;68427;48.476;19.102;2023-06-04T08:37:03;97845.06;;;30.98;18.64
79028;BME280;68427;48.476;19.102;2023-06-04T08:39:29;97853.13;;;30.54;17.56
79028;BME280;68427;48.476;19.102;2023-06-04T08:41:58;97848.28;;;29.68;19.96
79028;BME280;68427;48.476;19.102;2023-06-04T08:44:26;97844.56;;;30.52;21.02
79028;BME280;68427;48.476;19.102;2023-06-04T08:46:53;97843.56;;;30.40;19.29
79028;BME280;68427;48.476;19.102;2023-06-04T08:49:23;97851.50;;;29.79;18.88
79028;BME280;68427;48.476;19.102;2023-06-04T08:51:50;97850.09;;;29.05;20.71
79028;BME280;68427;48.476;19.102;2023-06-04T08:54:17;97848.41;;;28.73;21.30
79028;BME280;68427;48.476;19.102;2023-06-04T08:56:44;97852.53;;;30.00;20.54
79028;BME280;68427;48.476;19.102;2023-06-04T08:59:10;97848.25;;;30.83;20.32
79028;BME280;68427;48.476;19.102;2023-06-04T09:01:36;97849.88;;;32.04;18.14
79028;BME280;68427;48.476;19.102;2023-06-04T09:04:06;97842.41;;;31.92;19.67
79028;BME280;68427;48.476;19.102;2023-06-04T09:06:33;97845.19;;;32.85;17.37
79028;BME280;68427;48.476;19.102;2023-06-04T09:09:02;97844.72;;;32.70;19.28
79028;BME280;68427;48.476;19.102;2023-06-04T09:11:39;97843.47;;;33.34;16.30
79028;BME280;68427;48.476;19.102;2023-06-04T09:14:08;97847.66;;;33.77;17.55
79028;BME280;68427;48.476;19.102;2023-06-04T09:16:42;97845.63;;;33.99;16.03
79028;BME280;68427;48.476;19.102;2023-06-04T09:19:08;97848.19;;;34.45;16.60
79028;BME280;68427;48.476;19.102;2023-06-04T09:21:34;97852.97;;;35.44;15.58
79028;BME280;68427;48.476;19.102;2023-06-04T09:23:59;97858.97;;;36.13;14.94
79028;BME280;68427;48.476;19.102;2023-06-04T09:26:25;97856.44;;;36.75;14.35
79028;BME280;68427;48.476;19.102;2023-06-04T09:28:52;97853.00;;;37.17;13.74
79028;BME280;68427;48.476;19.102;2023-06-04T09:31:23;97855.88;;;37.05;14.22
79028;BME280;68427;48.476;19.102;2023-06-04T09:33:52;97845.88;;;36.39;16.06
79028;BME280;68427;48.476;19.102;2023-06-04T09:36:17;97851.22;;;36.00;15.26
79028;BME280;68427;48.476;19.102;2023-06-04T09:38:43;97842.03;;;36.24;15.49
79028;BME280;68427;48.476;19.102;2023-06-04T09:41:12;97848.41;;;35.80;16.28
79028;BME280;68427;48.476;19.102;2023-06-04T09:43:38;97853.03;;;33.07;18.12
79028;BME280;68427;48.476;19.102;2023-06-04T09:46:13;97850.44;;;30.63;20.89
79028;BME280;68427;48.476;19.102;2023-06-04T09:48:41;97851.63;;;29.42;22.20
79028;BME280;68427;48.476;19.102;2023-06-04T09:51:08;97857.75;;;28.53;22.67
79028;BME280;68427;48.476;19.102;2023-06-04T09:53:34;97858.88;;;28.10;23.65
79028;BME280;68427;48.476;19.102;2023-06-04T09:56:02;97863.25;;;28.06;24.03
79028;BME280;68427;48.476;19.102;2023-06-04T09:58:37;97863.34;;;28.01;23.79
79028;BME280;68427;48.476;19.102;2023-06-04T10:01:04;97854.31;;;27.50;23.97
79028;BME280;68427;48.476;19.102;2023-06-04T10:03:32;97860.72;;;27.22;25.23
79028;BME280;68427;48.476;19.102;2023-06-04T10:05:59;97859.47;;;27.14;25.05
79028;BME280;68427;48.476;19.102;2023-06-04T10:08:26;97852.47;;;26.80;23.68
79028;BME280;68427;48.476;19.102;2023-06-04T10:10:55;97860.09;;;26.73;23.27
79028;BME280;68427;48.476;19.102;2023-06-04T10:13:25;97857.03;;;26.61;26.11
79028;BME280;68427;48.476;19.102;2023-06-04T10:15:52;97855.13;;;26.99;24.21
79028;BME280;68427;48.476;19.102;2023-06-04T10:18:18;97862.47;;;27.45;22.39
79028;BME280;68427;48.476;19.102;2023-06-04T10:20:45;97870.38;;;27.23;24.36
79028;BME280;68427;48.476;19.102;2023-06-04T10:23:12;97871.53;;;27.17;22.70
79028;BME280;68427;48.476;19.102;2023-06-04T10:25:38;97869.88;;;27.02;25.14
79028;BME280;68427;48.476;19.102;2023-06-04T10:28:04;97864.59;;;26.78;22.85
79028;BME280;68427;48.476;19.102;2023-06-04T10:30:30;97866.75;;;25.60;24.69
79028;BME280;68427;48.476;19.102;2023-06-04T10:32:57;97874.16;;;25.05;25.60
79028;BME280;68427;48.476;19.102;2023-06-04T10:35:29;97868.56;;;25.01;25.88
79028;BME280;68427;48.476;19.102;2023-06-04T10:38:05;97871.59;;;24.90;25.80
79028;BME280;68427;48.476;19.102;2023-06-04T10:40:32;97872.06;;;25.36;25.86
79028;BME280;68427;48.476;19.102;2023-06-04T10:43:04;97869.00;;;25.14;25.99
79028;BME280;68427;48.476;19.102;2023-06-04T10:45:30;97872.22;;;25.50;24.74
79028;BME280;68427;48.476;19.102;2023-06-04T10:48:00;97874.09;;;25.79;26.39
79028;BME280;68427;48.476;19.102;2023-06-04T10:50:25;97873.19;;;26.13;26.37
79028;BME280;68427;48.476;19.102;2023-06-04T10:52:52;97875.47;;;26.00;25.42
79028;BME280;68427;48.476;19.102;2023-06-04T10:55:19;97878.03;;;26.35;26.98
79028;BME280;68427;48.476;19.102;2023-06-04T10:57:52;97876.56;;;26.85;25.48
79028;BME280;68427;48.476;19.102;2023-06-04T11:00:19;97871.22;;;26.66;25.87
79028;BME280;68427;48.476;19.102;2023-06-04T11:02:52;97873.41;;;26.40;26.50
79028;BME280;68427;48.476;19.102;2023-06-04T11:05:19;97870.31;;;26.28;26.27
79028;BME280;68427;48.476;19.102;2023-06-04T11:07:47;97873.81;;;27.09;26.19
79028;BME280;68427;48.476;19.102;2023-06-04T11:10:14;97877.50;;;27.32;25.13
79028;BME280;68427;48.476;19.102;2023-06-04T11:12:45;97887.31;;;27.23;25.20
79028;BME280;68427;48.476;19.102;2023-06-04T11:15:12;97882.63;;;26.96;25.24
79028;BME280;68427;48.476;19.102;2023-06-04T11:17:38;97880.25;;;26.51;25.69
79028;BME280;68427;48.476;19.102;2023-06-04T11:20:04;97884.00;;;26.75;26.88
79028;BME280;68427;48.476;19.102;2023-06-04T11:22:50;97883.06;;;26.41;25.21
79028;BME280;68427;48.476;19.102;2023-06-04T11:25:17;97889.84;;;26.15;26.99
79028;BME280;68427;48.476;19.102;2023-06-04T11:27:43;97886.38;;;26.33;25.43
79028;BME280;68427;48.476;19.102;2023-06-04T11:30:10;97887.69;;;26.60;25.43
79028;BME280;68427;48.476;19.102;2023-06-04T11:32:37;97888.66;;;26.69;26.15
79028;BME280;68427;48.476;19.102;2023-06-04T11:35:04;97890.16;;;26.32;28.37
79028;BME280;68427;48.476;19.102;2023-06-04T11:37:30;97892.56;;;26.34;25.90
79028;BME280;68427;48.476;19.102;2023-06-04T11:39:57;97893.84;;;26.60;25.65
79028;BME280;68427;48.476;19.102;2023-06-04T11:42:23;97890.75;;;26.48;25.91
79028;BME280;68427;48.476;19.102;2023-06-04T11:44:55;97900.88;;;25.84;27.42
79028;BME280;68427;48.476;19.102;2023-06-04T11:47:22;97894.28;;;25.42;25.80
79028;BME280;68427;48.476;19.102;2023-06-04T11:49:48;97891.59;;;25.42;26.15
79028;BME280;68427;48.476;19.102;2023-06-04T11:52:19;97888.09;;;25.47;24.56
79028;BME280;68427;48.476;19.102;2023-06-04T11:54:46;97902.06;;;25.04;27.01
79028;BME280;68427;48.476;19.102;2023-06-04T11:57:11;97906.25;;;24.76;25.08
79028;BME280;68427;48.476;19.102;2023-06-04T11:59:37;97900.97;;;24.61;25.39
79028;BME280;68427;48.476;19.102;2023-06-04T12:02:03;97911.50;;;24.36;28.92
79028;BME280;68427;48.476;19.102;2023-06-04T12:04:31;97904.91;;;24.08;30.59
79028;BME280;68427;48.476;19.102;2023-06-04T12:06:58;97909.81;;;23.50;31.60
79028;BME280;68427;48.476;19.102;2023-06-04T12:09:27;97911.38;;;23.05;31.43
79028;BME280;68427;48.476;19.102;2023-06-04T12:11:57;97907.53;;;22.70;32.55
79028;BME280;68427;48.476;19.102;2023-06-04T12:14:24;97908.34;;;22.76;33.39
79028;BME280;68427;48.476;19.102;2023-06-04T12:16:56;97897.41;;;22.77;32.60
79028;BME280;68427;48.476;19.102;2023-06-04T12:19:22;97899.75;;;22.63;32.99
79028;BME280;68427;48.476;19.102;2023-06-04T12:21:59;97898.44;;;22.66;34.39
79028;BME280;68427;48.476;19.102;2023-06-04T12:24:26;97910.69;;;22.57;33.15
79028;BME280;68427;48.476;19.102;2023-06-04T12:27:01;97900.00;;;22.57;31.09
79028;BME280;68427;48.476;19.102;2023-06-04T12:29:28;97903.47;;;22.47;32.99
79028;BME280;68427;48.476;19.102;2023-06-04T12:32:01;97908.38;;;22.18;34.22
79028;BME280;68427;48.476;19.102;2023-06-04T12:34:27;97903.81;;;22.13;33.78
79028;BME280;68427;48.476;19.102;2023-06-04T12:36:55;97909.56;;;21.90;35.51
79028;BME280;68427;48.476;19.102;2023-06-04T12:39:20;97906.56;;;21.81;32.47
79028;BME280;68427;48.476;19.102;2023-06-04T12:41:46;97911.59;;;21.72;33.82
79028;BME280;68427;48.476;19.102;2023-06-04T12:44:12;97906.19;;;21.62;33.93
79028;BME280;68427;48.476;19.102;2023-06-04T12:46:38;97910.97;;;21.60;35.27
79028;BME280;68427;48.476;19.102;2023-06-04T12:49:03;97901.84;;;21.56;36.93
79028;BME280;68427;48.476;19.102;2023-06-04T12:51:29;97908.50;;;21.53;35.12